createdAt,value
2022-09-14T00:01:35.570Z,10.90
2022-09-14T00:04:26.313Z,10.97
2022-09-14T00:07:15.642Z,10.90
2022-09-14T00:10:05.975Z,11.10
2022-09-14T00:12:55.582Z,10.70
2022-09-14T00:15:46.316Z,10.80
2022-09-14T00:18:36.489Z,11.43
2022-09-14T00:21:27.661Z,11.50
2022-09-14T00:24:17.682Z,12.30
2022-09-14T00:27:07.078Z,11.70
2022-09-14T00:29:56.377Z,11.33
2022-09-14T00:32:45.719Z,10.57
2022-09-14T00:35:37.445Z,11.30
2022-09-14T00:38:29.273Z,10.97
2022-09-14T00:41:25.004Z,11.50
2022-09-14T00:45:00.931Z,10.90
2022-09-14T00:47:53.161Z,10.77
2022-09-14T00:50:42.549Z,11.10
2022-09-14T00:53:33.211Z,11.07
2022-09-14T00:56:23.102Z,10.83
2022-09-14T00:59:19.285Z,11.77
2022-09-14T01:02:12.061Z,10.90
2022-09-14T01:05:01.534Z,11.10
2022-09-14T01:08:22.255Z,11.17
2022-09-14T01:11:31.641Z,10.87
2022-09-14T01:14:33.015Z,10.87
2022-09-14T01:17:29.019Z,10.50
2022-09-14T01:20:27.155Z,11.00
2022-09-14T01:23:30.689Z,10.67
2022-09-14T01:27:09.042Z,11.40
2022-09-14T01:30:08.328Z,10.50
2022-09-14T01:33:10.796Z,10.30
2022-09-14T01:36:04.153Z,10.57
2022-09-14T01:38:56.116Z,10.37
2022-09-14T01:41:48.056Z,10.30
2022-09-14T01:44:42.539Z,10.60
2022-09-14T01:47:40.135Z,10.53
2022-09-14T01:50:35.476Z,10.63
2022-09-14T01:53:30.815Z,10.77
2022-09-14T01:56:24.429Z,11.03
2022-09-14T01:59:18.694Z,11.20
2022-09-14T02:02:15.291Z,11.27
2022-09-14T02:05:11.921Z,11.13
2022-09-14T02:08:01.787Z,11.37
2022-09-14T02:10:51.126Z,12.10
2022-09-14T02:13:40.710Z,12.30
2022-09-14T02:16:30.255Z,12.23
2022-09-14T02:19:23.691Z,12.10
2022-09-14T02:22:15.237Z,11.87
2022-09-14T02:25:06.333Z,12.23
2022-09-14T02:27:55.647Z,12.10
2022-09-14T02:31:04.609Z,11.77
2022-09-14T02:34:03.662Z,11.90
2022-09-14T02:37:02.329Z,11.50
2022-09-14T02:40:05.033Z,11.43
2022-09-14T02:43:11.923Z,11.47
2022-09-14T02:46:10.328Z,11.77
2022-09-14T02:49:07.845Z,11.87
2022-09-14T02:52:04.552Z,11.90
2022-09-14T02:55:03.382Z,12.47
2022-09-14T02:58:04.893Z,12.67
2022-09-14T03:00:54.258Z,13.90
2022-09-14T03:03:43.870Z,13.17
2022-09-14T03:06:33.777Z,12.83
2022-09-14T03:09:23.075Z,12.70
2022-09-14T03:12:13.714Z,12.90
2022-09-14T03:15:03.110Z,12.40
2022-09-14T03:17:53.212Z,12.43
2022-09-14T03:20:43.215Z,12.33
2022-09-14T03:23:36.631Z,12.43
2022-09-14T03:26:29.051Z,12.50
2022-09-14T03:29:19.760Z,11.80
2022-09-14T03:32:10.949Z,13.37
2022-09-14T03:35:00.587Z,11.17
2022-09-14T03:37:49.908Z,12.00
2022-09-14T03:40:40.583Z,11.30
2022-09-14T03:43:29.974Z,10.60
2022-09-14T03:46:23.779Z,11.20
2022-09-14T03:49:13.245Z,10.40
2022-09-14T03:52:03.642Z,10.90
2022-09-14T03:54:53.009Z,10.57
2022-09-14T03:57:42.332Z,11.67
2022-09-14T04:00:32.305Z,11.07
2022-09-14T04:03:23.372Z,11.00
2022-09-14T04:06:13.012Z,10.43
2022-09-14T04:09:02.350Z,10.63
2022-09-14T04:11:51.689Z,10.43
2022-09-14T04:14:41.034Z,10.40
2022-09-14T04:17:30.404Z,10.80
2022-09-14T04:20:21.134Z,10.80
2022-09-14T04:23:10.584Z,11.57
2022-09-14T04:26:00.041Z,11.20
2022-09-14T04:28:50.566Z,11.13
2022-09-14T04:31:40.510Z,11.20
2022-09-14T04:34:30.056Z,10.87
2022-09-14T04:37:20.851Z,10.57
2022-09-14T04:40:12.086Z,10.70
2022-09-14T04:43:01.374Z,10.70
2022-09-14T04:45:50.974Z,10.17
2022-09-14T04:48:40.610Z,10.20
2022-09-14T04:51:32.630Z,10.27
2022-09-14T04:54:23.305Z,10.40
2022-09-14T04:57:12.640Z,10.57
2022-09-14T05:00:02.081Z,10.10
2022-09-14T05:02:51.481Z,10.00
2022-09-14T05:05:44.336Z,10.00
2022-09-14T05:08:36.571Z,10.30
2022-09-14T05:11:29.920Z,9.83
2022-09-14T05:14:19.792Z,10.10
2022-09-14T05:17:09.254Z,10.17
2022-09-14T05:19:58.540Z,10.37
2022-09-14T05:22:51.811Z,10.00
2022-09-14T05:25:41.238Z,10.40
2022-09-14T05:28:32.920Z,10.03
2022-09-14T05:31:23.877Z,10.27
2022-09-14T05:34:14.162Z,10.60
2022-09-14T05:37:03.490Z,10.77
2022-09-14T05:39:52.886Z,10.47
2022-09-14T05:42:42.331Z,11.57
2022-09-14T05:45:33.055Z,10.70
2022-09-14T05:48:22.644Z,11.07
2022-09-14T05:51:18.853Z,11.10
2022-09-14T05:54:11.549Z,12.37
2022-09-14T05:57:00.829Z,13.40
2022-09-14T05:59:50.111Z,13.70
2022-09-14T06:02:40.834Z,12.37
2022-09-14T06:05:30.205Z,12.30
2022-09-14T06:08:19.513Z,12.20
2022-09-14T06:11:12.768Z,11.90
2022-09-14T06:14:02.299Z,11.67
2022-09-14T06:16:51.645Z,11.60
2022-09-14T06:19:42.303Z,10.90
2022-09-14T06:22:33.331Z,12.83
2022-09-14T06:25:23.869Z,12.40
2022-09-14T06:28:13.293Z,27.87
2022-09-14T06:31:04.592Z,20.53
2022-09-14T06:33:54.014Z,16.03
2022-09-14T06:36:44.870Z,14.17
2022-09-14T06:39:34.297Z,13.50
2022-09-14T06:42:23.636Z,13.13
2022-09-14T06:45:14.579Z,12.40
2022-09-14T06:48:04.223Z,12.33
2022-09-14T06:50:54.975Z,11.93
2022-09-14T06:53:47.281Z,12.10
2022-09-14T06:56:38.541Z,11.57
2022-09-14T06:59:27.926Z,11.77
2022-09-14T07:02:17.253Z,11.50
2022-09-14T07:05:07.253Z,11.43
2022-09-14T07:07:56.542Z,10.60
2022-09-14T07:10:57.810Z,11.70
2022-09-14T07:13:47.849Z,11.43
2022-09-14T07:16:38.998Z,11.20
2022-09-14T07:19:28.414Z,11.30
2022-09-14T07:22:17.818Z,10.80
2022-09-14T07:25:08.861Z,11.40
2022-09-14T07:28:00.731Z,11.50
2022-09-14T07:30:50.079Z,11.23
2022-09-14T07:33:39.488Z,11.30
2022-09-14T07:36:32.739Z,11.30
2022-09-14T07:39:23.838Z,11.70
2022-09-14T07:42:13.147Z,11.60
2022-09-14T07:45:04.026Z,11.40
2022-09-14T07:47:53.481Z,11.30
2022-09-14T07:50:42.912Z,10.77
2022-09-14T07:53:33.058Z,11.63
2022-09-14T07:56:23.135Z,11.23
2022-09-14T08:02:25.600Z,11.50
2022-09-14T08:05:15.229Z,11.27
2022-09-14T08:08:04.735Z,11.30
2022-09-14T08:10:54.415Z,11.23
2022-09-14T08:13:45.768Z,12.30
2022-09-14T08:16:35.920Z,12.40
2022-09-14T08:19:26.822Z,11.00
2022-09-14T08:22:16.163Z,11.67
2022-09-14T08:25:06.501Z,11.43
2022-09-14T08:27:55.785Z,11.60
2022-09-14T08:30:45.119Z,11.37
2022-09-14T08:33:36.707Z,11.83
2022-09-14T08:36:30.486Z,11.30
2022-09-14T08:39:20.456Z,10.30
2022-09-14T08:42:16.872Z,10.70
2022-09-14T08:45:09.949Z,10.63
2022-09-14T08:48:00.097Z,23.20
2022-09-14T08:50:53.892Z,19.20
2022-09-14T08:53:45.514Z,16.00
2022-09-14T08:56:36.033Z,15.00
2022-09-14T08:59:40.435Z,12.90
2022-09-14T09:03:03.695Z,11.73
2022-09-14T09:05:58.612Z,11.33
2022-09-14T09:09:02.707Z,11.00
2022-09-14T09:11:54.632Z,10.67
2022-09-14T09:14:49.140Z,10.47
2022-09-14T09:17:43.626Z,10.90
2022-09-14T09:20:37.236Z,10.47
2022-09-14T09:23:30.604Z,10.47
2022-09-14T09:26:29.850Z,10.67
2022-09-14T09:29:19.402Z,10.83
2022-09-14T09:32:27.764Z,10.20
2022-09-14T09:35:47.115Z,10.93
2022-09-14T09:38:40.797Z,10.43
2022-09-14T09:41:38.855Z,10.30
2022-09-14T09:44:28.458Z,10.20
2022-09-14T09:47:17.826Z,10.07
2022-09-14T09:50:22.185Z,10.50
2022-09-14T09:53:18.497Z,10.43
2022-09-14T09:56:08.990Z,10.53
2022-09-14T09:58:59.836Z,10.10
2022-09-14T10:01:49.364Z,10.40
2022-09-14T10:04:39.023Z,9.90
2022-09-14T10:07:30.328Z,10.50
2022-09-14T10:10:23.433Z,9.97
2022-09-14T10:13:25.801Z,13.47
2022-09-14T10:16:19.699Z,13.20
2022-09-14T10:19:19.010Z,11.90
2022-09-14T10:22:27.930Z,11.53
2022-09-14T10:25:27.942Z,10.63
2022-09-14T10:28:24.856Z,10.60
2022-09-14T10:31:26.481Z,10.53
2022-09-14T10:34:21.210Z,10.47
2022-09-14T10:37:26.041Z,10.67
2022-09-14T10:40:20.348Z,10.20
2022-09-14T10:43:16.949Z,9.97
2022-09-14T10:46:08.957Z,9.93
2022-09-14T10:49:29.493Z,10.03
2022-09-14T10:52:27.675Z,9.67
2022-09-14T10:55:34.394Z,9.37
2022-09-14T10:58:54.862Z,9.83
2022-09-14T11:02:13.464Z,9.80
2022-09-14T11:05:16.221Z,9.70
2022-09-14T11:08:16.486Z,9.40
2022-09-14T11:11:42.023Z,9.50
2022-09-14T11:14:49.206Z,9.70
2022-09-14T11:17:54.096Z,9.50
2022-09-14T11:20:55.185Z,9.40
2022-09-14T11:23:52.014Z,9.30
2022-09-14T11:26:45.938Z,9.17
2022-09-14T11:29:40.413Z,9.80
2022-09-14T11:32:37.054Z,9.40
2022-09-14T11:35:30.889Z,9.60
2022-09-14T11:38:24.165Z,9.57
2022-09-14T11:41:26.020Z,9.43
2022-09-14T11:44:23.432Z,9.77
2022-09-14T11:47:18.143Z,9.67
2022-09-14T11:50:20.009Z,9.40
2022-09-14T11:53:13.875Z,9.87
2022-09-14T11:56:05.543Z,10.37
2022-09-14T11:58:57.795Z,10.47
2022-09-14T12:01:47.466Z,11.10
2022-09-14T12:04:36.848Z,11.30
2022-09-14T12:07:59.928Z,11.00
2022-09-14T12:11:34.246Z,11.27
2022-09-14T12:14:36.614Z,11.30
2022-09-14T12:17:39.274Z,10.93
2022-09-14T12:20:52.708Z,10.77
2022-09-14T12:23:51.733Z,10.70
2022-09-14T12:26:42.575Z,10.70
2022-09-14T12:29:35.496Z,10.60
2022-09-14T12:32:42.773Z,10.97
2022-09-14T12:35:52.904Z,10.80
2022-09-14T12:39:06.776Z,10.50
2022-09-14T12:42:25.303Z,10.80
2022-09-14T12:46:01.326Z,10.67
2022-09-14T12:48:58.948Z,10.40
2022-09-14T12:51:50.118Z,10.33
2022-09-14T12:55:01.331Z,10.30
2022-09-14T12:58:01.236Z,10.03
2022-09-14T13:01:21.703Z,10.13
2022-09-14T13:04:16.757Z,9.90
2022-09-14T13:07:14.826Z,10.10
2022-09-14T13:10:07.633Z,9.83
2022-09-14T13:12:58.655Z,10.20
2022-09-14T13:15:54.791Z,10.30
2022-09-14T13:18:44.398Z,9.60
2022-09-14T13:21:33.913Z,10.00
2022-09-14T13:24:31.242Z,9.60
2022-09-14T13:27:25.819Z,38.70
2022-09-14T13:30:24.173Z,24.70
2022-09-14T13:33:17.823Z,18.17
2022-09-14T13:36:07.950Z,14.53
2022-09-14T13:39:01.605Z,25.27
2022-09-14T13:41:51.248Z,18.73
2022-09-14T13:44:45.508Z,15.00
2022-09-14T13:47:36.404Z,12.07
2022-09-14T13:50:27.143Z,11.13
2022-09-14T13:53:41.769Z,10.10
2022-09-14T13:56:34.171Z,9.50
2022-09-14T13:59:24.096Z,19.10
2022-09-14T14:02:15.374Z,20.53
2022-09-14T14:05:07.573Z,15.50
2022-09-14T14:07:59.419Z,12.60
2022-09-14T14:10:51.334Z,11.60
2022-09-14T14:13:40.758Z,10.70
2022-09-14T14:16:30.278Z,10.80
2022-09-14T14:19:31.412Z,10.23
2022-09-14T14:22:26.469Z,9.67
2022-09-14T14:25:33.544Z,9.53
2022-09-14T14:28:27.528Z,9.30
2022-09-14T14:31:21.061Z,9.50
2022-09-14T14:34:19.959Z,9.20
2022-09-14T14:37:09.302Z,9.90
2022-09-14T14:40:00.055Z,9.83
2022-09-14T14:42:50.427Z,9.80
2022-09-14T14:45:40.602Z,9.60
2022-09-14T14:48:31.228Z,9.73
2022-09-14T14:51:21.769Z,9.30
2022-09-14T14:54:11.971Z,9.90
2022-09-14T14:57:03.324Z,9.80
2022-09-14T14:59:53.135Z,10.10
2022-09-14T15:02:42.519Z,10.33
2022-09-14T15:05:32.373Z,11.50
2022-09-14T15:08:21.729Z,11.80
2022-09-14T15:11:17.956Z,12.17
2022-09-14T15:14:12.736Z,11.37
2022-09-14T15:17:02.794Z,12.30
2022-09-14T15:19:52.605Z,12.20
2022-09-14T15:22:42.873Z,12.17
2022-09-14T15:25:32.230Z,12.23
2022-09-14T15:28:21.787Z,12.30
2022-09-14T15:31:13.417Z,11.50
2022-09-14T15:34:02.992Z,12.00
2022-09-14T15:36:54.486Z,11.90
2022-09-14T15:39:48.158Z,11.40
2022-09-14T15:42:39.435Z,12.00
2022-09-14T15:45:28.983Z,12.40
2022-09-14T15:48:20.592Z,11.93
2022-09-14T15:51:12.625Z,11.43
2022-09-14T15:54:02.644Z,11.57
2022-09-14T15:56:53.956Z,11.73
2022-09-14T15:59:43.409Z,11.33
2022-09-14T16:02:32.835Z,11.13
2022-09-14T16:05:23.898Z,11.10
2022-09-14T16:08:13.193Z,10.90
2022-09-14T16:11:04.571Z,10.87
2022-09-14T16:13:54.236Z,10.93
2022-09-14T16:16:43.877Z,10.50
2022-09-14T16:19:33.706Z,10.73
2022-09-14T16:22:25.311Z,11.13
2022-09-14T16:25:15.605Z,10.97
2022-09-14T16:28:04.919Z,11.27
2022-09-14T16:30:54.276Z,11.50
2022-09-14T16:33:47.641Z,11.00
2022-09-14T16:36:39.871Z,11.20
2022-09-14T16:39:31.737Z,10.70
2022-09-14T16:42:21.098Z,10.80
2022-09-14T16:45:11.393Z,10.80
2022-09-14T16:48:00.715Z,10.73
2022-09-14T16:50:54.370Z,11.57
2022-09-14T16:53:46.551Z,10.70
2022-09-14T16:56:39.461Z,10.50
2022-09-14T16:59:29.301Z,10.60
2022-09-14T17:02:18.697Z,10.23
2022-09-14T17:05:09.503Z,11.07
2022-09-14T17:07:58.865Z,10.80
2022-09-14T17:10:48.992Z,11.80
2022-09-14T17:13:40.030Z,11.93
2022-09-14T17:16:30.522Z,11.37
2022-09-14T17:19:20.142Z,11.20
2022-09-14T17:22:10.557Z,11.50
2022-09-14T17:24:59.957Z,11.50
2022-09-14T17:27:49.381Z,11.70
2022-09-14T17:30:40.119Z,11.67
2022-09-14T17:33:30.106Z,11.23
2022-09-14T17:36:19.496Z,11.57
2022-09-14T17:39:11.989Z,11.70
2022-09-14T17:42:01.548Z,11.47
2022-09-14T17:44:50.977Z,11.53
2022-09-14T17:47:41.764Z,11.40
2022-09-14T17:50:31.718Z,11.00
2022-09-14T17:53:21.329Z,12.87
2022-09-14T17:56:13.492Z,13.10
2022-09-14T17:59:06.200Z,12.10
2022-09-14T18:01:55.687Z,12.40
2022-09-14T18:04:48.566Z,11.63
2022-09-14T18:07:38.052Z,11.70
2022-09-14T18:10:27.450Z,11.63
2022-09-14T18:13:17.442Z,11.00
2022-09-14T18:16:07.729Z,10.97
2022-09-14T18:18:58.322Z,10.63
2022-09-14T18:21:52.394Z,10.77
2022-09-14T18:24:42.234Z,10.10
2022-09-14T18:27:31.816Z,9.80
2022-09-14T18:30:21.174Z,9.40
2022-09-14T18:33:10.544Z,9.50
2022-09-14T18:35:59.937Z,9.87
2022-09-14T18:38:53.161Z,9.60
2022-09-14T18:41:44.291Z,9.80
2022-09-14T18:44:33.647Z,9.30
2022-09-14T18:47:23.730Z,8.90
2022-09-14T18:50:14.136Z,9.30
2022-09-14T18:53:03.924Z,8.77
2022-09-14T18:55:54.676Z,9.10
2022-09-14T18:58:47.986Z,9.20
2022-09-14T19:01:38.620Z,9.30
2022-09-14T19:04:28.354Z,9.30
2022-09-14T19:07:17.712Z,9.13
2022-09-14T19:10:11.512Z,9.17
2022-09-14T19:13:02.601Z,9.03
2022-09-14T19:15:52.101Z,9.00
2022-09-14T19:18:43.403Z,9.10
2022-09-14T19:21:33.084Z,8.80
2022-09-14T19:24:22.871Z,8.50
2022-09-14T19:27:12.338Z,8.60
2022-09-14T19:30:03.151Z,8.80
2022-09-14T19:32:52.495Z,8.33
2022-09-14T19:35:41.876Z,8.40
2022-09-14T19:38:31.380Z,8.33
2022-09-14T19:41:22.046Z,8.20
2022-09-14T19:44:13.174Z,8.30
2022-09-14T19:47:04.194Z,8.30
2022-09-14T19:49:53.591Z,8.50
2022-09-14T19:52:42.995Z,8.60
2022-09-14T19:55:32.580Z,8.20
2022-09-14T19:58:22.797Z,8.30
2022-09-14T20:01:12.924Z,8.27
2022-09-14T20:04:05.675Z,8.70
2022-09-14T20:06:56.499Z,8.40
2022-09-14T20:09:45.847Z,8.30
2022-09-14T20:12:35.331Z,8.20
2022-09-14T20:15:24.674Z,8.30
2022-09-14T20:18:13.965Z,8.30
2022-09-14T20:21:09.874Z,8.30
2022-09-14T20:24:17.976Z,8.50
2022-09-14T20:27:07.651Z,8.50
2022-09-14T20:29:56.982Z,8.43
2022-09-14T20:32:46.706Z,8.17
2022-09-14T20:35:36.918Z,8.30
2022-09-14T20:38:27.809Z,8.50
2022-09-14T20:41:18.095Z,8.50
2022-09-14T20:44:07.977Z,8.30
2022-09-14T20:46:57.658Z,8.30
2022-09-14T20:49:47.021Z,8.37
2022-09-14T20:52:37.224Z,8.50
2022-09-14T20:55:27.929Z,8.30
2022-09-14T20:58:17.718Z,8.30
2022-09-14T21:01:10.345Z,8.30
2022-09-14T21:04:05.738Z,8.53
2022-09-14T21:06:57.458Z,8.30
2022-09-14T21:09:46.755Z,8.20
2022-09-14T21:12:37.471Z,8.40
2022-09-14T21:15:27.004Z,8.30
2022-09-14T21:18:20.487Z,8.43
2022-09-14T21:21:13.337Z,8.40
2022-09-14T21:24:04.680Z,8.27
2022-09-14T21:26:54.001Z,8.30
2022-09-14T21:29:44.733Z,8.40
2022-09-14T21:32:34.217Z,8.40
2022-09-14T21:35:23.571Z,8.50
2022-09-14T21:38:13.358Z,8.40
2022-09-14T21:41:03.089Z,8.47
2022-09-14T21:43:52.834Z,8.60
2022-09-14T21:46:43.958Z,8.60
2022-09-14T21:49:33.604Z,8.40
2022-09-14T21:52:22.945Z,8.80
2022-09-14T21:55:12.963Z,8.33
2022-09-14T21:58:02.303Z,8.83
2022-09-14T22:00:57.888Z,8.70
2022-09-14T22:03:51.436Z,8.70
2022-09-14T22:06:41.307Z,9.10
2022-09-14T22:09:31.424Z,8.90
2022-09-14T22:12:20.826Z,8.80
2022-09-14T22:15:11.596Z,8.90
2022-09-14T22:18:02.418Z,9.10
2022-09-14T22:20:59.139Z,9.10
2022-09-14T22:23:52.126Z,8.90
2022-09-14T22:26:42.809Z,8.63
2022-09-14T22:29:32.143Z,9.17
2022-09-14T22:32:21.753Z,8.67
2022-09-14T22:35:11.077Z,8.90
2022-09-14T22:38:01.780Z,9.03
2022-09-14T22:40:56.312Z,9.20
2022-09-14T22:43:47.110Z,9.20
2022-09-14T22:46:37.345Z,9.00
2022-09-14T22:49:26.665Z,9.30
2022-09-14T22:52:16.261Z,8.87
2022-09-14T22:55:08.486Z,9.07
2022-09-14T22:57:57.874Z,9.10
2022-09-14T23:00:47.658Z,9.17
2022-09-14T23:03:37.287Z,8.60
2022-09-14T23:06:31.740Z,9.43
2022-09-14T23:09:23.527Z,8.87
2022-09-14T23:12:14.200Z,9.30
2022-09-14T23:15:03.565Z,9.00
2022-09-14T23:17:53.291Z,8.87
2022-09-14T23:20:45.413Z,8.87
2022-09-14T23:23:34.918Z,9.07
2022-09-14T23:26:25.514Z,9.20
2022-09-14T23:29:18.323Z,8.90
2022-09-14T23:32:07.830Z,22.27
2022-09-14T23:34:57.173Z,18.47
2022-09-14T23:37:46.469Z,15.13
2022-09-14T23:40:35.770Z,13.27
2022-09-14T23:43:25.074Z,11.13
2022-09-14T23:46:16.391Z,10.50
2022-09-14T23:49:05.848Z,10.23
2022-09-14T23:51:55.222Z,9.70
2022-09-14T23:54:44.669Z,9.50
2022-09-14T23:57:33.952Z,9.10
